createdAt,value
2023-02-05T00:00:06.589Z,1024.07
2023-02-05T00:01:06.569Z,1024.06
2023-02-05T00:02:06.564Z,1024.02
2023-02-05T00:03:06.508Z,1024.01
2023-02-05T00:04:06.452Z,1024.03
2023-02-05T00:05:06.417Z,1023.96
2023-02-05T00:06:06.384Z,1023.93
2023-02-05T00:07:06.349Z,1023.89
2023-02-05T00:08:06.321Z,1023.89
2023-02-05T00:09:06.285Z,1023.88
2023-02-05T00:10:06.253Z,1023.89
2023-02-05T00:11:06.219Z,1023.8
2023-02-05T00:12:06.189Z,1023.8
2023-02-05T00:13:06.162Z,1023.8
2023-02-05T00:14:06.127Z,1023.78
2023-02-05T00:15:06.089Z,1023.8
2023-02-05T00:16:06.058Z,1023.77
2023-02-05T00:17:06.051Z,1023.72
2023-02-05T00:18:05.993Z,1023.71
2023-02-05T00:19:05.970Z,1023.74
2023-02-05T00:20:05.936Z,1023.69
2023-02-05T00:21:05.905Z,1023.7
2023-02-05T00:22:05.865Z,1023.67
2023-02-05T00:23:05.828Z,1023.63
2023-02-05T00:24:05.798Z,1023.59
2023-02-05T00:25:05.764Z,1023.59
2023-02-05T00:26:05.733Z,1023.61
2023-02-05T00:27:05.702Z,1023.57
2023-02-05T00:28:05.824Z,1023.55
2023-02-05T00:29:05.638Z,1023.52
2023-02-05T00:30:05.608Z,1023.46
2023-02-05T00:31:05.658Z,1023.44
2023-02-05T00:32:05.540Z,1023.44
2023-02-05T00:33:05.531Z,1023.38
2023-02-05T00:34:05.482Z,1023.4
2023-02-05T00:35:05.442Z,1023.37
2023-02-05T00:36:05.415Z,1023.37
2023-02-05T00:37:05.376Z,1023.38
2023-02-05T00:38:05.344Z,1023.38
2023-02-05T00:39:05.312Z,1023.39
2023-02-05T00:40:05.279Z,1023.4
2023-02-05T00:41:05.247Z,1023.44
2023-02-05T00:42:05.214Z,1023.44
2023-02-05T00:43:05.185Z,1023.42
2023-02-05T00:44:05.147Z,1023.43
2023-02-05T00:45:05.117Z,1023.44
2023-02-05T00:46:05.106Z,1023.43
2023-02-05T00:47:05.052Z,1023.39
2023-02-05T00:48:05.021Z,1023.32
2023-02-05T00:49:05.013Z,1023.32
2023-02-05T00:50:04.957Z,1023.25
2023-02-05T00:51:04.920Z,1023.27
2023-02-05T00:52:04.887Z,1023.26
2023-02-05T00:53:04.858Z,1023.24
2023-02-05T00:54:04.825Z,1023.22
2023-02-05T00:55:04.792Z,1023.21
2023-02-05T00:56:04.757Z,1023.17
2023-02-05T00:57:04.728Z,1023.17
2023-02-05T00:58:04.693Z,1023.19
2023-02-05T00:59:04.672Z,1023.19
2023-02-05T01:00:04.630Z,1023.19
2023-02-05T01:01:04.683Z,1023.2
2023-02-05T01:02:04.568Z,1023.17
2023-02-05T01:03:04.534Z,1023.14
2023-02-05T01:04:04.507Z,1023.09
2023-02-05T01:05:04.494Z,1023.04
2023-02-05T01:06:04.444Z,1022.99
2023-02-05T01:07:04.407Z,1022.99
2023-02-05T01:08:04.373Z,1022.97
2023-02-05T01:09:04.346Z,1022.99
2023-02-05T01:10:04.307Z,1022.98
2023-02-05T01:11:04.279Z,1022.96
2023-02-05T01:12:04.250Z,1022.93
2023-02-05T01:13:04.213Z,1022.9
2023-02-05T01:14:04.182Z,1022.92
2023-02-05T01:15:04.149Z,1022.89
2023-02-05T01:16:04.205Z,1022.89
2023-02-05T01:17:04.085Z,1022.91
2023-02-05T01:18:04.052Z,1022.92
2023-02-05T01:19:04.031Z,1022.92
2023-02-05T01:20:03.993Z,1022.92
2023-02-05T01:21:03.980Z,1022.94
2023-02-05T01:22:03.924Z,1022.96
2023-02-05T01:23:03.890Z,1022.88
2023-02-05T01:24:03.858Z,1022.79
2023-02-05T01:25:03.831Z,1022.76
2023-02-05T01:26:03.794Z,1022.71
2023-02-05T01:27:03.766Z,1022.63
2023-02-05T01:28:03.765Z,1022.63
2023-02-05T01:29:03.696Z,1022.58
2023-02-05T01:30:03.692Z,1022.56
2023-02-05T01:31:03.734Z,1022.59
2023-02-05T01:32:03.601Z,1022.55
2023-02-05T01:33:03.567Z,1022.58
2023-02-05T01:34:03.542Z,1022.63
2023-02-05T01:35:03.508Z,1022.64
2023-02-05T01:36:03.473Z,1022.72
2023-02-05T01:37:03.466Z,1022.76
2023-02-05T01:38:03.429Z,1022.82
2023-02-05T01:39:03.372Z,1022.84
2023-02-05T01:40:03.342Z,1022.78
2023-02-05T01:41:03.309Z,1022.8
2023-02-05T01:42:03.274Z,1022.78
2023-02-05T01:43:03.243Z,1022.8
2023-02-05T01:44:03.209Z,1022.78
2023-02-05T01:45:03.176Z,1022.77
2023-02-05T01:46:03.168Z,1022.79
2023-02-05T01:47:03.112Z,1022.79
2023-02-05T01:48:03.079Z,1022.81
2023-02-05T01:49:03.045Z,1022.8
2023-02-05T01:50:03.017Z,1022.78
2023-02-05T01:51:02.980Z,1022.73
2023-02-05T01:52:02.949Z,1022.71
2023-02-05T01:53:02.940Z,1022.7
2023-02-05T01:54:02.884Z,1022.69
2023-02-05T01:55:02.850Z,1022.65
2023-02-05T01:56:02.825Z,1022.63
2023-02-05T01:57:02.787Z,1022.64
2023-02-05T01:58:02.757Z,1022.65
2023-02-05T01:59:02.730Z,1022.69
2023-02-05T02:00:02.695Z,1022.65
2023-02-05T02:01:02.656Z,1022.67
2023-02-05T02:02:02.626Z,1022.68
2023-02-05T02:03:02.592Z,1022.64
2023-02-05T02:04:02.561Z,1022.62
2023-02-05T02:05:02.562Z,1022.62
2023-02-05T02:06:02.496Z,1022.59
2023-02-05T02:07:02.463Z,1022.57
2023-02-05T02:08:02.434Z,1022.54
2023-02-05T02:09:02.451Z,1022.48
2023-02-05T02:10:02.369Z,1022.45
2023-02-05T02:11:02.334Z,1022.4
2023-02-05T02:12:02.303Z,1022.42
2023-02-05T02:13:02.272Z,1022.42
2023-02-05T02:14:02.244Z,1022.47
2023-02-05T02:15:02.208Z,1022.48
2023-02-05T02:16:02.201Z,1022.48
2023-02-05T02:17:02.144Z,1022.49
2023-02-05T02:18:02.120Z,1022.52
2023-02-05T02:19:02.079Z,1022.58
2023-02-05T02:20:02.044Z,1022.61
2023-02-05T02:21:02.017Z,1022.65
2023-02-05T02:22:01.979Z,1022.61
2023-02-05T02:23:01.950Z,1022.65
2023-02-05T02:24:01.924Z,1022.65
2023-02-05T02:25:01.917Z,1022.6
2023-02-05T02:26:01.852Z,1022.67
2023-02-05T02:27:01.822Z,1022.68
2023-02-05T02:28:01.848Z,1022.73
2023-02-05T02:29:01.769Z,1022.71
2023-02-05T02:30:01.727Z,1022.77
2023-02-05T02:31:01.797Z,1022.73
2023-02-05T02:32:01.658Z,1022.7
2023-02-05T02:33:01.626Z,1022.7
2023-02-05T02:34:01.596Z,1022.69
2023-02-05T02:35:01.568Z,1022.72
2023-02-05T02:36:01.537Z,1022.72
2023-02-05T02:37:01.498Z,1022.66
2023-02-05T02:38:01.468Z,1022.68
2023-02-05T02:39:01.434Z,1022.64
2023-02-05T02:40:01.403Z,1022.66
2023-02-05T02:41:01.410Z,1022.68
2023-02-05T02:42:01.337Z,1022.72
2023-02-05T02:43:01.306Z,1022.78
2023-02-05T02:44:01.271Z,1022.82
2023-02-05T02:45:01.241Z,1022.84
2023-02-05T02:46:01.208Z,1022.82
2023-02-05T02:47:01.179Z,1022.76
2023-02-05T02:48:01.153Z,1022.74
2023-02-05T02:49:01.116Z,1022.66
2023-02-05T02:50:01.084Z,1022.66
2023-02-05T02:51:01.055Z,1022.58
2023-02-05T02:52:01.019Z,1022.59
2023-02-05T02:53:00.989Z,1022.56
2023-02-05T02:54:00.954Z,1022.55
2023-02-05T02:55:00.923Z,1022.52
2023-02-05T02:56:00.891Z,1022.5
2023-02-05T02:57:00.885Z,1022.52
2023-02-05T02:58:00.828Z,1022.51
2023-02-05T02:59:00.804Z,1022.55
2023-02-05T03:00:00.767Z,1022.55
2023-02-05T03:01:00.840Z,1022.55
2023-02-05T03:02:00.702Z,1022.54
2023-02-05T03:03:00.669Z,1022.56
2023-02-05T03:04:00.683Z,1022.56
2023-02-05T03:05:00.604Z,1022.55
2023-02-05T03:06:00.596Z,1022.51
2023-02-05T03:07:00.538Z,1022.52
2023-02-05T03:08:00.515Z,1022.48
2023-02-05T03:09:00.473Z,1022.5
2023-02-05T03:10:00.492Z,1022.53
2023-02-05T03:11:00.412Z,1022.51
2023-02-05T03:12:00.379Z,1022.5
2023-02-05T03:13:00.374Z,1022.49
2023-02-05T03:14:00.317Z,1022.43
2023-02-05T03:15:00.294Z,1022.43
2023-02-05T03:16:00.277Z,1022.37
2023-02-05T03:17:00.217Z,1022.32
2023-02-05T03:18:00.185Z,1022.29
2023-02-05T03:19:00.156Z,1022.24
2023-02-05T03:20:00.139Z,1022.25
2023-02-05T03:21:00.106Z,1022.24
2023-02-05T03:22:00.057Z,1022.23
2023-02-05T03:23:00.022Z,1022.28
2023-02-05T03:23:59.992Z,1022.21
2023-02-05T03:24:59.958Z,1022.18
2023-02-05T03:25:59.929Z,1022.12
2023-02-05T03:26:59.897Z,1022.1
2023-02-05T03:27:59.938Z,1022.09
2023-02-05T03:28:59.858Z,1022.09
2023-02-05T03:29:59.800Z,1022.12
2023-02-05T03:30:59.876Z,1022.16
2023-02-05T03:31:59.733Z,1022.18
2023-02-05T03:32:59.700Z,1022.18
2023-02-05T03:33:59.673Z,1022.09
2023-02-05T03:34:59.633Z,1022.01
2023-02-05T03:35:59.605Z,1021.92
2023-02-05T03:36:59.570Z,1021.96
2023-02-05T03:37:59.540Z,1021.96
2023-02-05T03:38:59.505Z,1022
2023-02-05T03:39:59.475Z,1022.07
2023-02-05T03:40:59.441Z,1022.05
2023-02-05T03:41:59.417Z,1022.11
2023-02-05T03:42:59.377Z,1022.07
2023-02-05T03:43:59.372Z,1022.03
2023-02-05T03:44:59.338Z,1022.04
2023-02-05T03:45:59.343Z,1021.96
2023-02-05T03:46:59.246Z,1021.95
2023-02-05T03:47:59.215Z,1021.95
2023-02-05T03:48:59.188Z,1021.86
2023-02-05T03:49:59.154Z,1021.87
2023-02-05T03:50:59.117Z,1021.85
2023-02-05T03:51:59.085Z,1021.88
2023-02-05T03:52:59.063Z,1021.87
2023-02-05T03:53:59.019Z,1021.91
2023-02-05T03:54:58.986Z,1021.9
2023-02-05T03:55:58.952Z,1021.85
2023-02-05T03:56:58.918Z,1021.79
2023-02-05T03:57:58.884Z,1021.69
2023-02-05T03:58:58.856Z,1021.64
2023-02-05T03:59:58.839Z,1021.63
2023-02-05T04:00:58.833Z,1021.64
2023-02-05T04:01:58.782Z,1021.7
2023-02-05T04:02:58.723Z,1021.75
2023-02-05T04:03:58.696Z,1021.81
2023-02-05T04:04:58.654Z,1021.87
2023-02-05T04:05:58.621Z,1021.88
2023-02-05T04:06:58.589Z,1021.89
2023-02-05T04:07:58.558Z,1021.98
2023-02-05T04:08:58.524Z,1022.06
2023-02-05T04:09:58.491Z,1022.1
2023-02-05T04:10:58.457Z,1022.13
2023-02-05T04:11:58.422Z,1022.1
2023-02-05T04:12:58.393Z,1022.14
2023-02-05T04:13:58.357Z,1022.19
2023-02-05T04:14:58.325Z,1022.13
2023-02-05T04:15:58.305Z,1022.19
2023-02-05T04:16:58.286Z,1022.16
2023-02-05T04:17:58.228Z,1022.1
2023-02-05T04:18:58.194Z,1022.16
2023-02-05T04:19:58.160Z,1022.14
2023-02-05T04:20:58.128Z,1022.13
2023-02-05T04:21:58.093Z,1022.1
2023-02-05T04:22:58.064Z,1022.15
2023-02-05T04:23:58.042Z,1022.07
2023-02-05T04:24:57.997Z,1022.11
2023-02-05T04:25:57.964Z,1022.15
2023-02-05T04:26:57.933Z,1022.15
2023-02-05T04:27:57.930Z,1022.19
2023-02-05T04:28:57.875Z,1022.17
2023-02-05T04:29:57.833Z,1022.2
2023-02-05T04:30:57.849Z,1022.2
2023-02-05T04:31:57.812Z,1022.22
2023-02-05T04:32:57.778Z,1022.23
2023-02-05T04:33:57.707Z,1022.31
2023-02-05T04:34:57.676Z,1022.26
2023-02-05T04:35:57.646Z,1022.28
2023-02-05T04:36:57.615Z,1022.23
2023-02-05T04:37:57.577Z,1022.23
2023-02-05T04:38:57.548Z,1022.16
2023-02-05T04:39:57.512Z,1022.16
2023-02-05T04:40:57.481Z,1022.18
2023-02-05T04:41:57.453Z,1022.17
2023-02-05T04:42:57.416Z,1022.18
2023-02-05T04:43:57.400Z,1022.18
2023-02-05T04:44:57.350Z,1022.2
2023-02-05T04:45:57.342Z,1022.24
2023-02-05T04:46:57.289Z,1022.18
2023-02-05T04:47:57.257Z,1022.21
2023-02-05T04:48:57.251Z,1022.21
2023-02-05T04:49:57.192Z,1022.19
2023-02-05T04:50:57.157Z,1022.12
2023-02-05T04:51:57.130Z,1022.15
2023-02-05T04:52:57.095Z,1022.17
2023-02-05T04:53:57.067Z,1022.19
2023-02-05T04:54:57.036Z,1022.23
2023-02-05T04:55:56.996Z,1022.31
2023-02-05T04:56:56.962Z,1022.41
2023-02-05T04:57:56.931Z,1022.43
2023-02-05T04:58:56.897Z,1022.41
2023-02-05T04:59:56.869Z,1022.32
2023-02-05T05:00:56.860Z,1022.37
2023-02-05T05:01:56.802Z,1022.43
2023-02-05T05:02:56.767Z,1022.32
2023-02-05T05:03:56.733Z,1022.28
2023-02-05T05:04:56.730Z,1022.21
2023-02-05T05:05:56.671Z,1022.28
2023-02-05T05:06:56.640Z,1022.24
2023-02-05T05:07:56.604Z,1022.24
2023-02-05T05:08:56.574Z,1022.29
2023-02-05T05:09:56.540Z,1022.25
2023-02-05T05:10:56.506Z,1022.26
2023-02-05T05:11:56.476Z,1022.24
2023-02-05T05:12:56.442Z,1022.23
2023-02-05T05:13:56.409Z,1022.21
2023-02-05T05:14:56.374Z,1022.22
2023-02-05T05:15:56.386Z,1022.23
2023-02-05T05:16:56.314Z,1022.18
2023-02-05T05:17:56.279Z,1022.16
2023-02-05T05:18:56.245Z,1022.13
2023-02-05T05:19:56.221Z,1022.15
2023-02-05T05:20:56.203Z,1022.05
2023-02-05T05:21:56.145Z,1022.04
2023-02-05T05:22:56.114Z,1022.03
2023-02-05T05:23:56.080Z,1022.01
2023-02-05T05:24:56.046Z,1021.94
2023-02-05T05:25:56.015Z,1021.89
2023-02-05T05:26:55.989Z,1021.88
2023-02-05T05:27:55.980Z,1021.84
2023-02-05T05:28:55.915Z,1021.83
2023-02-05T05:29:55.884Z,1021.82
2023-02-05T05:30:55.866Z,1021.8
2023-02-05T05:31:55.836Z,1021.78
2023-02-05T05:32:55.810Z,1021.78
2023-02-05T05:33:55.766Z,1021.77
2023-02-05T05:34:55.720Z,1021.76
2023-02-05T05:35:55.690Z,1021.79
2023-02-05T05:36:55.721Z,1021.79
2023-02-05T05:37:55.621Z,1021.8
2023-02-05T05:38:55.591Z,1021.78
2023-02-05T05:39:55.574Z,1021.75
2023-02-05T05:40:55.525Z,1021.84
2023-02-05T05:41:55.494Z,1021.88
2023-02-05T05:42:55.460Z,1021.89
2023-02-05T05:43:55.431Z,1021.87
2023-02-05T05:44:55.394Z,1021.85
2023-02-05T05:45:55.400Z,1021.83
2023-02-05T05:46:55.328Z,1021.83
2023-02-05T05:47:55.298Z,1021.79
2023-02-05T05:48:55.263Z,1021.84
2023-02-05T05:49:55.231Z,1021.85
2023-02-05T05:50:55.198Z,1021.88
2023-02-05T05:51:55.168Z,1021.87
2023-02-05T05:52:55.155Z,1021.86
2023-02-05T05:53:55.097Z,1021.78
2023-02-05T05:54:55.066Z,1021.79
2023-02-05T05:55:55.030Z,1021.8
2023-02-05T05:56:55.004Z,1021.84
2023-02-05T05:57:54.963Z,1021.82
2023-02-05T05:58:54.934Z,1021.82
2023-02-05T05:59:54.899Z,1021.78
2023-02-05T06:00:54.879Z,1021.78
2023-02-05T06:01:54.832Z,1021.81
2023-02-05T06:02:54.805Z,1021.83
2023-02-05T06:03:54.769Z,1021.82
2023-02-05T06:04:54.735Z,1021.85
2023-02-05T06:05:54.700Z,1021.75
2023-02-05T06:06:54.669Z,1021.8
2023-02-05T06:07:54.637Z,1021.83
2023-02-05T06:08:54.630Z,1021.81
2023-02-05T06:09:54.569Z,1021.81
2023-02-05T06:10:54.537Z,1021.8
2023-02-05T06:11:54.504Z,1021.82
2023-02-05T06:12:54.472Z,1021.83
2023-02-05T06:13:54.437Z,1021.85
2023-02-05T06:14:54.408Z,1021.87
2023-02-05T06:15:54.399Z,1021.85
2023-02-05T06:16:54.341Z,1021.86
2023-02-05T06:17:54.307Z,1021.83
2023-02-05T06:18:54.278Z,1021.82
2023-02-05T06:19:54.240Z,1021.82
2023-02-05T06:20:54.230Z,1021.86
2023-02-05T06:21:54.175Z,1021.84
2023-02-05T06:22:54.144Z,1021.88
2023-02-05T06:23:54.110Z,1021.87
2023-02-05T06:24:54.102Z,1021.87
2023-02-05T06:25:54.044Z,1021.84
2023-02-05T06:26:54.013Z,1021.87
2023-02-05T06:27:54.027Z,1021.89
2023-02-05T06:28:53.948Z,1021.82
2023-02-05T06:29:53.920Z,1021.85
2023-02-05T06:30:53.935Z,1021.81
2023-02-05T06:31:53.888Z,1021.82
2023-02-05T06:32:53.820Z,1021.82
2023-02-05T06:33:53.787Z,1021.84
2023-02-05T06:34:53.754Z,1021.85
2023-02-05T06:35:53.726Z,1021.83
2023-02-05T06:36:53.698Z,1021.78
2023-02-05T06:37:53.657Z,1021.82
2023-02-05T06:38:53.624Z,1021.77
2023-02-05T06:39:53.594Z,1021.75
2023-02-05T06:40:53.653Z,1021.74
2023-02-05T06:41:53.529Z,1021.75
2023-02-05T06:42:53.503Z,1021.75
2023-02-05T06:43:53.464Z,1021.74
2023-02-05T06:44:53.429Z,1021.72
2023-02-05T06:45:53.398Z,1021.68
2023-02-05T06:46:53.365Z,1021.61
2023-02-05T06:47:53.334Z,1021.64
2023-02-05T06:48:53.298Z,1021.59
2023-02-05T06:49:53.268Z,1021.59
2023-02-05T06:50:53.236Z,1021.6
2023-02-05T06:51:53.202Z,1021.59
2023-02-05T06:52:53.170Z,1021.58
2023-02-05T06:53:53.138Z,1021.56
2023-02-05T06:54:53.104Z,1021.58
2023-02-05T06:55:53.074Z,1021.58
2023-02-05T06:56:53.062Z,1021.52
2023-02-05T06:57:53.008Z,1021.56
2023-02-05T06:58:52.974Z,1021.57
2023-02-05T06:59:52.942Z,1021.57
2023-02-05T07:00:52.909Z,1021.55
2023-02-05T07:01:52.937Z,1021.56
2023-02-05T07:02:52.907Z,1021.54
2023-02-05T07:03:52.813Z,1021.54
2023-02-05T07:04:52.781Z,1021.51
2023-02-05T07:05:52.750Z,1021.53
2023-02-05T07:06:52.717Z,1021.46
2023-02-05T07:07:52.687Z,1021.48
2023-02-05T07:08:52.653Z,1021.5
2023-02-05T07:09:52.622Z,1021.51
2023-02-05T07:10:52.595Z,1021.49
2023-02-05T07:11:52.557Z,1021.47
2023-02-05T07:12:52.552Z,1021.44
2023-02-05T07:13:52.493Z,1021.46
2023-02-05T07:14:52.467Z,1021.47
2023-02-05T07:15:52.461Z,1021.46
2023-02-05T07:16:52.396Z,1021.48
2023-02-05T07:17:52.363Z,1021.44
2023-02-05T07:18:52.333Z,1021.44
2023-02-05T07:19:52.298Z,1021.45
2023-02-05T07:20:52.266Z,1021.44
2023-02-05T07:21:52.253Z,1021.38
2023-02-05T07:22:52.203Z,1021.38
2023-02-05T07:23:52.169Z,1021.44
2023-02-05T07:24:52.138Z,1021.4
2023-02-05T07:25:52.104Z,1021.36
2023-02-05T07:26:52.072Z,1021.32
2023-02-05T07:27:52.098Z,1021.34
2023-02-05T07:28:52.036Z,1021.3
2023-02-05T07:29:52.010Z,1021.28
2023-02-05T07:30:52.047Z,1021.22
2023-02-05T07:31:51.995Z,1021.28
2023-02-05T07:32:51.878Z,1021.25
2023-02-05T07:33:51.863Z,1021.29
2023-02-05T07:34:51.820Z,1021.26
2023-02-05T07:35:51.780Z,1021.27
2023-02-05T07:36:51.746Z,1021.26
2023-02-05T07:37:51.713Z,1021.23
2023-02-05T07:38:51.685Z,1021.23
2023-02-05T07:39:51.652Z,1021.27
2023-02-05T07:40:51.622Z,1021.25
2023-02-05T07:41:51.581Z,1021.29
2023-02-05T07:42:51.550Z,1021.23
2023-02-05T07:43:51.518Z,1021.33
2023-02-05T07:44:51.508Z,1021.32
2023-02-05T07:45:51.449Z,1021.38
2023-02-05T07:46:51.504Z,1021.35
2023-02-05T07:47:51.383Z,1021.34
2023-02-05T07:48:51.353Z,1021.36
2023-02-05T07:49:51.317Z,1021.38
2023-02-05T07:50:51.287Z,1021.39
2023-02-05T07:51:51.255Z,1021.41
2023-02-05T07:52:51.221Z,1021.37
2023-02-05T07:53:51.189Z,1021.39
2023-02-05T07:54:51.157Z,1021.35
2023-02-05T07:55:51.130Z,1021.41
2023-02-05T07:56:51.090Z,1021.4
2023-02-05T07:57:51.059Z,1021.43
2023-02-05T07:58:51.034Z,1021.44
2023-02-05T07:59:50.992Z,1021.46
2023-02-05T08:00:50.996Z,1021.42
2023-02-05T08:01:50.926Z,1021.37
2023-02-05T08:02:50.898Z,1021.38
2023-02-05T08:03:50.955Z,1021.47
2023-02-05T08:04:50.830Z,1021.4
2023-02-05T08:05:50.795Z,1021.46
2023-02-05T08:06:50.764Z,1021.41
2023-02-05T08:07:50.730Z,1021.4
2023-02-05T08:08:50.701Z,1021.37
2023-02-05T08:09:50.667Z,1021.39
2023-02-05T08:10:50.640Z,1021.46
2023-02-05T08:11:50.604Z,1021.47
2023-02-05T08:12:50.569Z,1021.48
2023-02-05T08:13:50.538Z,1021.47
2023-02-05T08:14:50.504Z,1021.48
2023-02-05T08:15:50.473Z,1021.41
2023-02-05T08:16:50.460Z,1021.46
2023-02-05T08:17:50.410Z,1021.44
2023-02-05T08:18:50.372Z,1021.44
2023-02-05T08:19:50.352Z,1021.48
2023-02-05T08:20:50.311Z,1021.44
2023-02-05T08:21:50.277Z,1021.41
2023-02-05T08:22:50.244Z,1021.37
2023-02-05T08:23:50.212Z,1021.4
2023-02-05T08:24:50.181Z,1021.43
2023-02-05T08:25:50.147Z,1021.42
2023-02-05T08:26:50.119Z,1021.44
2023-02-05T08:27:50.150Z,1021.41
2023-02-05T08:28:50.048Z,1021.41
2023-02-05T08:29:50.063Z,1021.35
2023-02-05T08:30:50.004Z,1021.4
2023-02-05T08:31:50.006Z,1021.33
2023-02-05T08:32:50.000Z,1021.35
2023-02-05T08:33:49.886Z,1021.32
2023-02-05T08:34:49.850Z,1021.31
2023-02-05T08:35:49.822Z,1021.31
2023-02-05T08:36:49.786Z,1021.33
2023-02-05T08:37:49.755Z,1021.34
2023-02-05T08:38:49.733Z,1021.32
2023-02-05T08:39:49.691Z,1021.29
2023-02-05T08:40:49.658Z,1021.4
2023-02-05T08:41:49.624Z,1021.35
2023-02-05T08:42:49.588Z,1021.28
2023-02-05T08:43:49.570Z,1021.32
2023-02-05T08:44:49.524Z,1021.38
2023-02-05T08:45:49.515Z,1021.31
2023-02-05T08:46:50.595Z,1021.33
2023-02-05T08:47:49.428Z,1021.26
2023-02-05T08:48:49.440Z,1021.23
2023-02-05T08:49:49.364Z,1021.25
2023-02-05T08:50:49.329Z,1021.25
2023-02-05T08:51:49.299Z,1021.25
2023-02-05T08:52:49.262Z,1021.21
2023-02-05T08:53:49.230Z,1021.21
2023-02-05T08:54:49.196Z,1021.23
2023-02-05T08:55:49.165Z,1021.21
2023-02-05T08:56:49.132Z,1021.27
2023-02-05T08:57:49.103Z,1021.31
2023-02-05T08:58:49.065Z,1021.2
2023-02-05T08:59:49.035Z,1021.29
2023-02-05T09:00:49.001Z,1021.35
2023-02-05T09:01:48.967Z,1021.3
2023-02-05T09:02:48.936Z,1021.17
2023-02-05T09:03:48.901Z,1021.26
2023-02-05T09:04:50.274Z,1021.3
2023-02-05T09:05:48.835Z,1021.29
2023-02-05T09:06:48.817Z,1021.33
2023-02-05T09:07:48.772Z,1021.32
2023-02-05T09:08:48.737Z,1021.3
2023-02-05T09:09:48.703Z,1021.4
2023-02-05T09:10:48.673Z,1021.41
2023-02-05T09:11:48.663Z,1021.46
2023-02-05T09:12:48.614Z,1021.42
2023-02-05T09:13:48.591Z,1021.5
2023-02-05T09:14:48.540Z,1021.46
2023-02-05T09:15:48.801Z,1021.52
2023-02-05T09:16:48.494Z,1021.59
2023-02-05T09:17:48.440Z,1021.49
2023-02-05T09:18:48.440Z,1021.66
2023-02-05T09:19:48.471Z,1021.7
2023-02-05T09:20:48.372Z,1021.62
2023-02-05T09:21:48.311Z,1021.62
2023-02-05T09:22:48.280Z,1021.56
2023-02-05T09:23:48.246Z,1021.52
2023-02-05T09:24:48.214Z,1021.58
2023-02-05T09:25:48.178Z,1021.57
2023-02-05T09:26:48.157Z,1021.71
2023-02-05T09:27:48.183Z,1021.63
2023-02-05T09:28:48.086Z,1021.75
2023-02-05T09:29:48.064Z,1021.74
2023-02-05T09:30:48.082Z,1021.68
2023-02-05T09:31:48.125Z,1021.66
2023-02-05T09:32:47.951Z,1021.74
2023-02-05T09:33:47.916Z,1021.76
2023-02-05T09:34:47.885Z,1021.73
2023-02-05T09:35:47.852Z,1021.71
2023-02-05T09:36:47.845Z,1021.76
2023-02-05T09:37:47.792Z,1021.69
2023-02-05T09:38:47.759Z,1021.8
2023-02-05T09:40:19.263Z,1021.72
2023-02-05T09:40:52.755Z,1021.8
2023-02-05T09:41:52.714Z,1021.87
2023-02-05T09:42:52.713Z,1021.78
2023-02-05T09:43:52.658Z,1021.82
2023-02-05T09:44:52.621Z,1021.85
2023-02-05T09:45:52.621Z,1021.75
2023-02-05T09:46:52.550Z,1021.79
2023-02-05T09:47:52.515Z,1021.89
2023-02-05T09:48:52.484Z,1021.81
2023-02-05T09:49:52.451Z,1021.81
2023-02-05T09:50:52.420Z,1021.74
2023-02-05T09:51:52.409Z,1021.81
2023-02-05T09:52:52.351Z,1021.79
2023-02-05T09:53:52.318Z,1021.82
2023-02-05T09:54:52.283Z,1021.94
2023-02-05T09:55:52.250Z,1021.94
2023-02-05T09:56:52.215Z,1021.92
2023-02-05T09:57:52.184Z,1022.02
2023-02-05T09:58:52.148Z,1021.9
2023-02-05T09:59:52.117Z,1021.9
2023-02-05T10:00:52.081Z,1021.96
2023-02-05T10:01:52.050Z,1021.9
2023-02-05T10:02:52.017Z,1021.9
2023-02-05T10:03:51.985Z,1021.92
2023-02-05T10:04:51.949Z,1021.91
2023-02-05T10:05:51.917Z,1021.87
2023-02-05T10:06:51.888Z,1021.87
2023-02-05T10:07:51.878Z,1021.81
2023-02-05T10:08:51.818Z,1021.82
2023-02-05T10:09:51.784Z,1021.83
2023-02-05T10:10:51.749Z,1021.82
2023-02-05T10:11:51.722Z,1021.88
2023-02-05T10:12:51.686Z,1021.85
2023-02-05T10:13:51.655Z,1021.92
2023-02-05T10:14:51.618Z,1021.85
2023-02-05T10:15:51.613Z,1021.82
2023-02-05T10:16:51.553Z,1021.88
2023-02-05T10:17:51.522Z,1021.83
2023-02-05T10:18:51.495Z,1021.8
2023-02-05T10:19:51.465Z,1021.81
2023-02-05T10:20:51.424Z,1021.96
2023-02-05T10:21:51.389Z,1021.85
2023-02-05T10:22:51.359Z,1021.89
2023-02-05T10:23:51.408Z,1021.87
2023-02-05T10:24:51.291Z,1021.82
2023-02-05T10:25:51.260Z,1021.86
2023-02-05T10:26:51.225Z,1021.83
2023-02-05T10:27:51.221Z,1021.84
2023-02-05T10:28:51.163Z,1021.84
2023-02-05T10:29:51.131Z,1021.82
2023-02-05T10:30:51.248Z,1021.75
2023-02-05T10:31:51.102Z,1021.74
2023-02-05T10:32:51.046Z,1021.79
2023-02-05T10:33:51.006Z,1021.88
2023-02-05T10:34:50.973Z,1021.8
2023-02-05T10:35:50.939Z,1021.79
2023-02-05T10:36:50.903Z,1021.82
2023-02-05T10:37:50.880Z,1021.8
2023-02-05T10:38:50.840Z,1021.78
2023-02-05T10:39:50.840Z,1021.79
2023-02-05T10:40:50.772Z,1021.79
2023-02-05T10:41:50.761Z,1021.72
2023-02-05T10:42:50.711Z,1021.79
2023-02-05T10:43:50.680Z,1021.78
2023-02-05T10:44:50.643Z,1021.77
2023-02-05T10:45:50.611Z,1021.8
2023-02-05T10:46:50.578Z,1021.77
2023-02-05T10:47:50.547Z,1021.76
2023-02-05T10:48:50.517Z,1021.83
2023-02-05T10:49:50.479Z,1021.72
2023-02-05T10:50:50.447Z,1021.74
2023-02-05T10:51:50.414Z,1021.75
2023-02-05T10:52:50.382Z,1021.85
2023-02-05T10:53:50.350Z,1021.81
2023-02-05T10:54:50.315Z,1021.74
2023-02-05T10:55:50.366Z,1021.86
2023-02-05T10:56:50.251Z,1021.9
2023-02-05T10:57:50.218Z,1021.88
2023-02-05T10:58:50.185Z,1021.86
2023-02-05T10:59:50.152Z,1021.83
2023-02-05T11:00:50.121Z,1021.86
2023-02-05T11:01:50.109Z,1021.79
2023-02-05T11:02:50.139Z,1021.9
2023-02-05T11:03:50.019Z,1021.89
2023-02-05T11:04:49.988Z,1021.85
2023-02-05T11:05:49.953Z,1021.84
2023-02-05T11:06:49.922Z,1021.93
2023-02-05T11:07:49.888Z,1021.91
2023-02-05T11:08:49.857Z,1021.83
2023-02-05T11:09:49.820Z,1021.86
2023-02-05T11:10:49.790Z,1021.84
2023-02-05T11:11:49.844Z,1021.81
2023-02-05T11:12:49.726Z,1021.84
2023-02-05T11:13:49.690Z,1021.87
2023-02-05T11:14:49.658Z,1021.89
2023-02-05T11:15:49.634Z,1021.84
2023-02-05T11:16:49.591Z,1021.86
2023-02-05T11:17:49.558Z,1021.8
2023-02-05T11:18:49.527Z,1021.81
2023-02-05T11:19:49.493Z,1021.82
2023-02-05T11:20:49.459Z,1021.82
2023-02-05T11:21:49.441Z,1021.8
2023-02-05T11:22:49.395Z,1021.84
2023-02-05T11:23:49.361Z,1021.74
2023-02-05T11:24:49.328Z,1021.73
2023-02-05T11:25:49.296Z,1021.73
2023-02-05T11:26:49.264Z,1021.71
2023-02-05T11:27:49.309Z,1021.67
2023-02-05T11:28:49.200Z,1021.7
2023-02-05T11:29:49.162Z,1021.73
2023-02-05T11:30:51.459Z,1021.69
2023-02-05T11:31:49.171Z,1021.72
2023-02-05T11:32:49.064Z,1021.66
2023-02-05T11:33:49.032Z,1021.69
2023-02-05T11:34:49.000Z,1021.74
2023-02-05T11:35:48.964Z,1021.68
2023-02-05T11:36:48.931Z,1021.63
2023-02-05T11:37:48.901Z,1021.62
2023-02-05T11:38:48.865Z,1021.71
2023-02-05T11:39:48.834Z,1021.7
2023-02-05T11:40:48.800Z,1021.66
2023-02-05T11:41:48.798Z,1021.58
2023-02-05T11:42:48.734Z,1021.63
2023-02-05T11:43:48.729Z,1021.69
2023-02-05T11:44:48.708Z,1021.69
2023-02-05T11:45:48.635Z,1021.7
2023-02-05T11:46:48.644Z,1021.66
2023-02-05T11:47:48.575Z,1021.61
2023-02-05T11:48:48.536Z,1021.68
2023-02-05T11:49:48.503Z,1021.71
2023-02-05T11:50:48.469Z,1021.62
2023-02-05T11:51:48.438Z,1021.63
2023-02-05T11:52:48.404Z,1021.68
2023-02-05T11:53:48.373Z,1021.7
2023-02-05T11:54:48.338Z,1021.83
2023-02-05T11:55:48.307Z,1021.7
2023-02-05T11:56:48.272Z,1021.7
2023-02-05T11:57:48.241Z,1021.74
2023-02-05T11:58:48.207Z,1021.73
2023-02-05T11:59:48.203Z,1021.79
2023-02-05T12:00:48.141Z,1021.76
2023-02-05T12:01:48.148Z,1021.8
2023-02-05T12:02:48.098Z,1021.85
2023-02-05T12:03:48.046Z,1021.93
2023-02-05T12:04:48.010Z,1021.86
2023-02-05T12:05:47.978Z,1022.02
2023-02-05T12:06:47.948Z,1022.01
2023-02-05T12:07:47.915Z,1021.92